createdAt,value
2018-08-30T00:00:14.394Z,50.21
2018-08-30T00:01:50.374Z,49.48
2018-08-30T00:03:25.741Z,50.69
2018-08-30T00:05:01.155Z,50.70
2018-08-30T00:06:36.578Z,50.35
2018-08-30T00:08:13.292Z,51.34
2018-08-30T00:09:49.242Z,52.39
2018-08-30T00:11:24.648Z,53.16
2018-08-30T00:13:00.043Z,53.52
2018-08-30T00:14:35.472Z,52.26
2018-08-30T00:16:11.121Z,52.54
2018-08-30T00:17:46.499Z,53.91
2018-08-30T00:19:21.980Z,54.67
2018-08-30T00:20:57.409Z,54.04
2018-08-30T00:22:33.439Z,56.31
2018-08-30T00:24:09.383Z,57.17
2018-08-30T00:25:45.070Z,58.47
2018-08-30T00:27:20.477Z,59.24
2018-08-30T00:28:55.927Z,57.93
2018-08-30T00:30:31.541Z,56.45
2018-08-30T00:32:07.179Z,56.69
2018-08-30T00:33:42.586Z,56.79
2018-08-30T00:35:18.480Z,57.81
2018-08-30T00:36:53.917Z,59.07
2018-08-30T00:38:29.309Z,59.36
2018-08-30T00:40:04.857Z,59.96
2018-08-30T00:41:40.252Z,59.40
2018-08-30T00:43:15.682Z,59.61
2018-08-30T00:44:51.113Z,59.22
2018-08-30T00:46:27.596Z,59.34
2018-08-30T00:48:02.978Z,58.54
2018-08-30T00:49:38.385Z,59.62
2018-08-30T00:51:14.169Z,60.97
2018-08-30T00:52:49.736Z,59.92
2018-08-30T00:54:25.137Z,59.80
2018-08-30T00:56:00.555Z,59.10
2018-08-30T00:57:36.031Z,58.98
2018-08-30T00:59:11.435Z,59.98
2018-08-30T01:00:46.885Z,59.41
2018-08-30T01:02:22.826Z,60.68
2018-08-30T01:03:58.254Z,60.87
2018-08-30T01:05:33.628Z,61.44
2018-08-30T01:07:09.073Z,59.97
2018-08-30T01:08:44.454Z,59.44
2018-08-30T01:10:19.870Z,58.76
2018-08-30T01:11:56.125Z,59.55
2018-08-30T01:13:31.572Z,59.34
2018-08-30T01:15:07.201Z,59.85
2018-08-30T01:16:42.607Z,60.03
2018-08-30T01:18:18.361Z,60.83
2018-08-30T01:19:53.759Z,62.11
2018-08-30T01:21:29.163Z,60.46
2018-08-30T01:23:04.608Z,61.79
2018-08-30T01:24:40.023Z,61.83
2018-08-30T01:26:15.410Z,61.88
2018-08-30T01:27:50.869Z,62.11
2018-08-30T01:29:26.512Z,62.78
2018-08-30T01:31:02.065Z,61.27
2018-08-30T01:32:37.595Z,61.90
2018-08-30T01:34:13.674Z,61.67
2018-08-30T01:37:23.246Z,60.97
2018-08-30T01:38:58.671Z,59.93
2018-08-30T01:40:34.108Z,59.56
2018-08-30T01:42:09.726Z,59.00
2018-08-30T01:43:45.265Z,60.99
2018-08-30T01:45:20.696Z,60.27
2018-08-30T01:46:57.188Z,61.59
2018-08-30T01:48:32.743Z,62.08
2018-08-30T01:50:08.140Z,62.46
2018-08-30T01:51:43.591Z,61.65
2018-08-30T01:53:19.029Z,62.24
2018-08-30T01:54:54.458Z,62.61
2018-08-30T01:56:29.887Z,62.63
2018-08-30T01:58:05.694Z,62.14
2018-08-30T01:59:41.724Z,60.84
2018-08-30T02:01:17.192Z,60.97
2018-08-30T02:02:52.593Z,60.64
2018-08-30T02:04:28.035Z,61.16
2018-08-30T02:06:03.466Z,60.75
2018-08-30T02:07:38.964Z,61.75
2018-08-30T02:09:14.412Z,61.09
2018-08-30T02:10:49.774Z,61.17
2018-08-30T02:12:25.232Z,61.77
2018-08-30T02:14:00.630Z,61.24
2018-08-30T02:15:36.382Z,61.46
2018-08-30T02:17:11.845Z,60.95
2018-08-30T02:18:47.583Z,61.41
2018-08-30T02:20:23.216Z,61.84
2018-08-30T02:21:59.078Z,60.92
2018-08-30T02:23:35.371Z,60.38
2018-08-30T02:25:10.821Z,60.00
2018-08-30T02:26:46.264Z,59.65
2018-08-30T02:28:21.649Z,60.10
2018-08-30T02:29:57.097Z,59.59
2018-08-30T02:31:32.547Z,60.07
2018-08-30T02:33:08.746Z,59.27
2018-08-30T02:34:44.168Z,59.44
2018-08-30T02:36:19.598Z,60.00
2018-08-30T02:37:55.035Z,60.29
2018-08-30T02:39:30.511Z,60.01
2018-08-30T02:41:06.337Z,60.30
2018-08-30T02:42:41.729Z,59.47
2018-08-30T02:44:17.775Z,59.81
2018-08-30T02:45:53.222Z,59.27
2018-08-30T02:47:29.806Z,59.32
2018-08-30T02:49:05.281Z,60.03
2018-08-30T02:50:40.677Z,60.61
2018-08-30T02:52:16.142Z,60.41
2018-08-30T02:53:51.576Z,61.00
2018-08-30T02:55:27.464Z,61.37
2018-08-30T02:57:02.900Z,61.79
2018-08-30T02:58:38.344Z,61.83
2018-08-30T03:00:14.004Z,62.12
2018-08-30T03:01:49.531Z,62.17
2018-08-30T03:03:24.962Z,62.66
2018-08-30T03:05:00.377Z,62.98
2018-08-30T03:06:35.897Z,62.80
2018-08-30T03:08:11.632Z,62.47
2018-08-30T03:09:47.081Z,62.53
2018-08-30T03:11:22.480Z,62.58
2018-08-30T03:12:57.906Z,62.73
2018-08-30T03:14:33.860Z,62.23
2018-08-30T03:16:09.558Z,62.44
2018-08-30T03:17:45.041Z,63.12
2018-08-30T03:19:20.458Z,62.89
2018-08-30T03:20:56.485Z,63.43
2018-08-30T03:22:31.904Z,63.65
2018-08-30T03:24:07.345Z,63.32
2018-08-30T03:25:42.760Z,63.69
2018-08-30T03:27:18.207Z,63.10
2018-08-30T03:28:53.640Z,63.27
2018-08-30T03:30:29.049Z,62.49
2018-08-30T03:32:04.459Z,62.87
2018-08-30T03:33:39.908Z,62.21
2018-08-30T03:35:16.005Z,62.36
2018-08-30T03:36:51.997Z,62.90
2018-08-30T03:38:27.451Z,62.85
2018-08-30T03:40:02.904Z,62.57
2018-08-30T03:41:38.395Z,63.48
2018-08-30T03:43:13.938Z,63.72
2018-08-30T03:44:49.408Z,64.04
2018-08-30T03:46:24.905Z,64.37
2018-08-30T03:48:00.545Z,64.85
2018-08-30T03:49:35.976Z,65.27
2018-08-30T03:51:11.419Z,65.14
2018-08-30T03:52:46.873Z,65.78
2018-08-30T03:54:22.440Z,65.67
2018-08-30T03:56:01.951Z,65.95
2018-08-30T03:57:37.950Z,66.68
2018-08-30T03:59:13.403Z,66.58
2018-08-30T04:00:48.940Z,67.38
2018-08-30T04:02:24.495Z,69.09
2018-08-30T04:04:00.696Z,69.29
2018-08-30T04:05:36.145Z,69.19
2018-08-30T04:07:11.568Z,70.65
2018-08-30T04:08:47.060Z,71.07
2018-08-30T04:10:22.508Z,71.67
2018-08-30T04:11:58.489Z,72.38
2018-08-30T04:13:34.423Z,73.65
2018-08-30T04:15:10.140Z,73.84
2018-08-30T04:16:45.629Z,75.00
2018-08-30T04:18:21.008Z,75.88
2018-08-30T04:19:56.488Z,76.47
2018-08-30T04:21:31.927Z,77.72
2018-08-30T04:23:07.328Z,78.63
2018-08-30T04:24:42.770Z,79.24
2018-08-30T04:26:18.408Z,80.30
2018-08-30T04:27:53.827Z,81.48
2018-08-30T04:29:29.285Z,82.14
2018-08-30T04:31:05.058Z,82.30
2018-08-30T04:32:40.636Z,83.50
2018-08-30T04:34:16.045Z,83.36
2018-08-30T04:35:51.477Z,83.65
2018-08-30T04:37:26.923Z,83.48
2018-08-30T04:39:03.944Z,83.55
2018-08-30T04:40:39.382Z,83.38
2018-08-30T04:42:14.813Z,83.89
2018-08-30T04:43:50.210Z,84.41
2018-08-30T04:45:25.635Z,84.34
2018-08-30T04:47:01.643Z,84.44
2018-08-30T04:48:37.687Z,85.32
2018-08-30T04:50:14.623Z,84.49
2018-08-30T04:51:50.168Z,85.17
2018-08-30T04:53:25.712Z,84.05
2018-08-30T04:55:01.836Z,83.81
2018-08-30T04:56:38.138Z,83.56
2018-08-30T04:58:14.067Z,84.55
2018-08-30T04:59:50.478Z,85.55
2018-08-30T05:01:25.995Z,85.20
2018-08-30T05:03:01.420Z,84.92
2018-08-30T05:04:36.845Z,84.76
2018-08-30T05:06:12.568Z,84.29
2018-08-30T05:07:48.026Z,84.07
2018-08-30T05:09:23.459Z,83.55
2018-08-30T05:10:58.956Z,83.49
2018-08-30T05:12:34.405Z,83.07
2018-08-30T05:14:10.307Z,83.46
2018-08-30T05:15:47.750Z,82.66
2018-08-30T05:17:23.191Z,83.29
2018-08-30T05:18:59.109Z,83.14
2018-08-30T05:20:34.520Z,83.07
2018-08-30T05:22:10.325Z,83.80
2018-08-30T05:23:48.394Z,83.72
2018-08-30T05:25:23.808Z,84.13
2018-08-30T05:26:59.207Z,83.13
2018-08-30T05:28:37.235Z,84.03
2018-08-30T05:30:13.907Z,86.30
2018-08-30T05:31:49.498Z,86.34
2018-08-30T05:33:25.068Z,87.89
2018-08-30T05:35:02.416Z,88.60
2018-08-30T05:36:37.832Z,87.97
2018-08-30T05:38:13.232Z,89.67
2018-08-30T05:39:49.033Z,89.02
2018-08-30T05:41:24.512Z,89.49
2018-08-30T05:42:59.892Z,89.64
2018-08-30T05:44:35.415Z,88.71
2018-08-30T05:46:12.554Z,88.15
2018-08-30T05:47:47.986Z,87.04
2018-08-30T05:49:23.418Z,87.09
2018-08-30T05:50:58.918Z,86.74
2018-08-30T05:52:35.997Z,86.64
2018-08-30T05:54:11.483Z,86.15
2018-08-30T05:55:47.560Z,85.47
2018-08-30T05:57:23.044Z,84.94
2018-08-30T05:58:58.491Z,85.28
2018-08-30T06:00:33.957Z,85.88
2018-08-30T06:02:11.071Z,86.65
2018-08-30T06:03:47.706Z,86.08
2018-08-30T06:05:23.810Z,85.60
2018-08-30T06:07:01.191Z,84.18
2018-08-30T06:08:50.150Z,84.07
2018-08-30T06:10:31.515Z,84.07
2018-08-30T06:12:06.996Z,83.49
2018-08-30T06:13:42.421Z,83.07
2018-08-30T06:15:17.830Z,82.73
2018-08-30T06:16:53.634Z,83.18
2018-08-30T06:18:30.476Z,82.77
2018-08-30T06:20:06.203Z,82.26
2018-08-30T06:21:42.127Z,81.95
2018-08-30T06:23:17.842Z,81.65
2018-08-30T06:24:53.241Z,80.92
2018-08-30T06:26:29.008Z,81.16
2018-08-30T06:28:05.381Z,81.36
2018-08-30T06:29:41.254Z,80.58
2018-08-30T06:31:17.951Z,80.72
2018-08-30T06:32:53.606Z,79.56
2018-08-30T06:34:28.952Z,81.02
2018-08-30T06:36:04.457Z,81.04
2018-08-30T06:37:40.133Z,80.64
2018-08-30T06:39:15.634Z,79.90
2018-08-30T06:40:51.482Z,79.46
2018-08-30T06:42:28.668Z,79.81
2018-08-30T06:44:04.133Z,78.96
2018-08-30T06:45:40.130Z,80.00
2018-08-30T06:47:20.196Z,79.00
2018-08-30T06:48:56.599Z,80.17
2018-08-30T06:52:12.360Z,79.92
2018-08-30T06:53:49.340Z,79.03
2018-08-30T06:55:24.874Z,78.87
2018-08-30T06:57:04.487Z,77.83
2018-08-30T06:58:40.063Z,76.68
2018-08-30T07:00:16.693Z,75.91
2018-08-30T07:01:52.201Z,76.17
2018-08-30T07:03:27.656Z,75.23
2018-08-30T07:05:03.372Z,76.23
2018-08-30T07:06:39.761Z,75.80
2018-08-30T07:08:15.385Z,75.34
2018-08-30T07:09:51.463Z,75.30
2018-08-30T07:11:29.348Z,75.43
2018-08-30T07:13:04.824Z,75.16
2018-08-30T07:14:41.267Z,73.91
2018-08-30T07:16:16.723Z,74.02
2018-08-30T07:17:52.141Z,73.59
2018-08-30T07:19:27.567Z,72.21
2018-08-30T07:21:03.025Z,72.67
2018-08-30T07:22:38.549Z,71.59
2018-08-30T07:24:15.687Z,71.91
2018-08-30T07:25:51.104Z,71.38
2018-08-30T07:27:26.566Z,72.87
2018-08-30T07:29:02.009Z,72.01
2018-08-30T07:30:37.444Z,71.66
2018-08-30T07:32:12.876Z,70.99
2018-08-30T07:33:48.326Z,69.19
2018-08-30T07:35:23.769Z,69.99
2018-08-30T07:36:59.174Z,69.97
2018-08-30T07:38:34.649Z,70.47
2018-08-30T07:40:10.072Z,69.21
2018-08-30T07:41:46.917Z,68.42
2018-08-30T07:43:22.463Z,68.29
2018-08-30T07:44:57.901Z,67.78
2018-08-30T07:46:33.318Z,67.20
2018-08-30T07:48:08.782Z,65.95
2018-08-30T07:49:45.184Z,65.82
2018-08-30T07:51:21.669Z,65.55
2018-08-30T07:52:57.110Z,65.15
2018-08-30T07:54:32.688Z,65.08
2018-08-30T07:56:08.181Z,65.26
2018-08-30T07:57:43.720Z,64.99
2018-08-30T07:59:19.291Z,66.52
2018-08-30T08:00:54.756Z,66.25
2018-08-30T08:02:32.835Z,66.79
2018-08-30T08:04:09.458Z,67.30
2018-08-30T08:05:45.397Z,67.35
2018-08-30T08:07:21.015Z,67.69
2018-08-30T08:08:56.373Z,67.11
2018-08-30T08:10:31.830Z,67.85
2018-08-30T08:12:07.477Z,68.00
2018-08-30T08:13:42.827Z,67.80
2018-08-30T08:15:18.238Z,67.49
2018-08-30T08:16:53.682Z,67.75
2018-08-30T08:18:29.170Z,66.46
2018-08-30T08:20:04.599Z,67.17
2018-08-30T08:21:40.986Z,66.11
2018-08-30T08:23:16.412Z,65.50
2018-08-30T08:24:51.869Z,65.31
2018-08-30T08:26:27.273Z,65.09
2018-08-30T08:28:02.758Z,64.58
2018-08-30T08:29:38.186Z,65.23
2018-08-30T08:31:14.251Z,64.48
2018-08-30T08:32:55.059Z,65.31
2018-08-30T08:34:30.938Z,65.88
2018-08-30T08:36:06.352Z,65.44
2018-08-30T08:37:41.755Z,65.35
2018-08-30T08:39:17.218Z,64.88
2018-08-30T08:40:52.688Z,64.42
2018-08-30T08:42:28.130Z,63.26
2018-08-30T08:44:03.621Z,63.61
2018-08-30T08:45:39.052Z,63.11
2018-08-30T08:47:14.824Z,63.45
2018-08-30T08:48:50.299Z,63.04
2018-08-30T08:50:25.763Z,63.32
2018-08-30T08:52:01.612Z,63.37
2018-08-30T08:53:37.056Z,63.80
2018-08-30T08:55:12.638Z,62.98
2018-08-30T08:56:48.233Z,63.46
2018-08-30T08:58:23.660Z,63.30
2018-08-30T08:59:59.158Z,63.17
2018-08-30T09:01:34.935Z,62.12
2018-08-30T09:03:10.406Z,61.98
2018-08-30T09:04:45.834Z,62.02
2018-08-30T09:06:21.333Z,62.57
2018-08-30T09:07:58.338Z,62.60
2018-08-30T09:09:33.724Z,62.22
2018-08-30T09:11:09.412Z,62.86
2018-08-30T09:12:44.878Z,61.74
2018-08-30T09:14:20.575Z,60.54
2018-08-30T09:15:56.617Z,61.26
2018-08-30T09:17:32.100Z,60.60
2018-08-30T09:19:08.112Z,59.71
2018-08-30T09:20:43.554Z,60.62
2018-08-30T09:22:20.515Z,60.30
2018-08-30T09:23:56.374Z,60.02
2018-08-30T09:25:31.831Z,60.14
2018-08-30T09:27:07.777Z,59.42
2018-08-30T09:28:43.736Z,59.69
2018-08-30T09:30:19.454Z,59.15
2018-08-30T09:31:54.925Z,58.97
2018-08-30T09:33:32.487Z,59.37
2018-08-30T09:35:08.058Z,59.88
2018-08-30T09:36:43.578Z,59.73
2018-08-30T09:38:19.934Z,59.90
2018-08-30T09:39:55.399Z,60.95
2018-08-30T09:41:31.493Z,59.43
2018-08-30T09:43:06.973Z,59.25
2018-08-30T09:44:42.462Z,59.78
2018-08-30T09:46:19.649Z,59.52
2018-08-30T09:47:55.087Z,60.24
2018-08-30T09:49:30.636Z,59.46
2018-08-30T09:51:06.160Z,59.84
2018-08-30T09:52:42.337Z,59.56
2018-08-30T09:54:22.556Z,59.96
2018-08-30T09:55:58.339Z,61.73
2018-08-30T09:57:33.830Z,61.78
2018-08-30T09:59:09.705Z,60.94
2018-08-30T10:00:51.338Z,61.84
2018-08-30T10:02:32.234Z,61.22
2018-08-30T10:04:08.178Z,60.17
2018-08-30T10:05:43.666Z,58.75
2018-08-30T10:07:19.108Z,58.12
2018-08-30T10:08:54.599Z,56.96
2018-08-30T10:10:30.036Z,56.34
2018-08-30T10:12:05.575Z,57.23
2018-08-30T10:13:41.043Z,56.53
2018-08-30T10:15:16.502Z,56.95
2018-08-30T10:16:52.415Z,57.67
2018-08-30T10:18:28.798Z,58.03
2018-08-30T10:20:04.284Z,58.19
2018-08-30T10:21:39.794Z,59.21
2018-08-30T10:23:15.277Z,59.35
2018-08-30T10:24:50.751Z,59.50
2018-08-30T10:26:26.227Z,59.53
2018-08-30T10:28:02.083Z,58.34
2018-08-30T10:29:38.252Z,57.67
2018-08-30T10:31:13.701Z,58.97
2018-08-30T10:32:49.711Z,60.16
2018-08-30T10:34:30.723Z,59.83
2018-08-30T10:36:06.859Z,58.87
2018-08-30T10:37:42.325Z,59.21
2018-08-30T10:39:18.279Z,59.51
2018-08-30T10:40:53.973Z,59.68
2018-08-30T10:42:30.417Z,60.32
2018-08-30T10:44:06.358Z,60.06
2018-08-30T10:45:41.811Z,59.94
2018-08-30T10:47:17.665Z,59.11
2018-08-30T10:48:53.925Z,59.29
2018-08-30T10:50:30.402Z,59.31
2018-08-30T10:52:05.910Z,59.83
2018-08-30T10:53:42.111Z,60.37
2018-08-30T10:57:02.161Z,59.89
2018-08-30T10:58:39.642Z,59.85
2018-08-30T11:00:24.898Z,61.32
2018-08-30T11:02:12.339Z,62.02
2018-08-30T11:03:49.920Z,61.18
2018-08-30T11:05:25.462Z,61.11
2018-08-30T11:07:01.031Z,61.31
2018-08-30T11:08:37.437Z,60.63
2018-08-30T11:10:12.918Z,60.55
2018-08-30T11:11:48.438Z,59.81
2018-08-30T11:13:24.298Z,59.31
2018-08-30T11:14:59.750Z,59.12
2018-08-30T11:16:35.224Z,59.09
2018-08-30T11:18:10.719Z,58.71
2018-08-30T11:19:46.146Z,58.98
2018-08-30T11:21:21.571Z,59.02
2018-08-30T11:22:57.424Z,59.64
2018-08-30T11:24:33.955Z,59.20
2018-08-30T11:26:09.629Z,59.07
2018-08-30T11:27:45.476Z,58.63
2018-08-30T11:29:21.621Z,58.39
2018-08-30T11:30:57.099Z,57.78
2018-08-30T11:32:32.555Z,57.84
2018-08-30T11:34:08.010Z,57.16
2018-08-30T11:35:43.401Z,56.89
2018-08-30T11:37:19.420Z,57.10
2018-08-30T11:38:58.528Z,57.15
2018-08-30T11:40:36.851Z,56.93
2018-08-30T11:42:12.292Z,56.99
2018-08-30T11:43:48.027Z,56.52
2018-08-30T11:45:23.574Z,55.02
2018-08-30T11:46:59.081Z,54.37
2018-08-30T11:48:35.568Z,54.00
2018-08-30T11:50:11.200Z,54.20
2018-08-30T11:51:53.928Z,53.33
2018-08-30T11:53:30.113Z,53.41
2018-08-30T11:55:05.839Z,53.64
2018-08-30T11:56:44.223Z,53.72
2018-08-30T11:58:20.673Z,53.36
2018-08-30T11:59:59.183Z,52.12
2018-08-30T12:01:37.586Z,51.99
2018-08-30T12:03:17.752Z,50.88
2018-08-30T12:04:53.508Z,50.45
2018-08-30T12:06:30.811Z,49.97
2018-08-30T12:08:06.648Z,49.76
2018-08-30T12:09:44.489Z,50.66
2018-08-30T12:11:20.532Z,51.15
2018-08-30T12:12:57.154Z,50.78
2018-08-30T12:14:32.898Z,52.03
2018-08-30T12:16:08.658Z,52.31
2018-08-30T12:17:44.273Z,52.50
2018-08-30T12:19:19.759Z,53.74
2018-08-30T12:20:55.280Z,53.60
2018-08-30T12:22:31.389Z,53.95
2018-08-30T12:24:06.823Z,53.83
2018-08-30T12:25:42.386Z,52.90
2018-08-30T12:27:17.792Z,53.07
2018-08-30T12:28:53.317Z,54.21
2018-08-30T12:30:28.872Z,54.88
2018-08-30T12:32:04.384Z,56.12
2018-08-30T12:33:39.922Z,55.76
2018-08-30T12:35:15.558Z,54.84
2018-08-30T12:36:50.900Z,55.01
2018-08-30T12:38:26.587Z,54.31
2018-08-30T12:40:03.751Z,54.54
2018-08-30T12:41:39.165Z,55.32
2018-08-30T12:43:14.691Z,54.71
2018-08-30T12:44:50.024Z,54.82
2018-08-30T12:46:25.452Z,55.71
2018-08-30T12:48:01.234Z,55.54
2018-08-30T12:49:36.616Z,55.64
2018-08-30T12:51:12.273Z,55.10
2018-08-30T12:52:47.719Z,54.37
2018-08-30T12:54:23.479Z,53.89
2018-08-30T12:55:58.880Z,54.83
2018-08-30T12:57:34.803Z,54.46
2018-08-30T12:59:15.469Z,54.53
2018-08-30T13:00:51.094Z,54.97
2018-08-30T13:02:26.579Z,54.85
2018-08-30T13:04:02.536Z,54.00
2018-08-30T13:05:39.222Z,54.13
2018-08-30T13:07:16.016Z,54.04
2018-08-30T13:08:51.525Z,53.19
2018-08-30T13:10:26.927Z,52.52
2018-08-30T13:12:02.632Z,52.31
2018-08-30T13:13:39.945Z,51.87
2018-08-30T13:15:16.391Z,52.21
2018-08-30T13:16:51.625Z,51.93
2018-08-30T13:18:27.203Z,50.00
2018-08-30T13:20:03.141Z,49.77
2018-08-30T13:21:38.827Z,47.95
2018-08-30T13:23:14.180Z,46.40
2018-08-30T13:24:49.838Z,46.00
2018-08-30T13:26:25.074Z,46.00
2018-08-30T13:28:00.637Z,46.74
2018-08-30T13:29:37.006Z,44.89
2018-08-30T13:31:13.153Z,44.14
2018-08-30T13:32:49.110Z,45.05
2018-08-30T13:34:24.936Z,45.32
2018-08-30T13:36:00.316Z,47.20
2018-08-30T13:37:35.914Z,46.19
2018-08-30T13:39:12.306Z,45.00
2018-08-30T13:40:47.789Z,43.52
2018-08-30T13:42:23.628Z,43.13
2018-08-30T13:43:59.057Z,42.82
2018-08-30T13:45:35.054Z,43.49
2018-08-30T13:47:10.485Z,43.66
2018-08-30T13:48:46.075Z,45.11
2018-08-30T13:50:21.598Z,45.04
2018-08-30T13:51:57.218Z,45.71
2018-08-30T13:53:33.575Z,46.71
2018-08-30T13:55:09.131Z,46.19
2018-08-30T13:56:44.751Z,46.66
2018-08-30T13:58:20.451Z,47.77
2018-08-30T13:59:56.027Z,47.85
2018-08-30T14:01:31.892Z,48.07
2018-08-30T14:03:06.662Z,48.69
2018-08-30T14:04:42.104Z,49.19
2018-08-30T14:06:17.616Z,48.81
2018-08-30T14:07:53.185Z,48.85
2018-08-30T14:09:28.789Z,48.91
2018-08-30T14:11:04.290Z,47.89
2018-08-30T14:12:40.642Z,47.51
2018-08-30T14:14:15.928Z,47.37
2018-08-30T14:15:51.741Z,46.86
2018-08-30T14:17:27.353Z,46.99
2018-08-30T14:19:03.044Z,47.12
2018-08-30T14:20:38.333Z,46.79
2018-08-30T14:22:17.566Z,45.60
2018-08-30T14:23:52.984Z,45.12
2018-08-30T14:25:28.354Z,44.34
2018-08-30T14:27:03.876Z,44.07
2018-08-30T14:28:39.303Z,43.13
2018-08-30T14:30:16.666Z,43.19
2018-08-30T14:31:54.536Z,43.26
2018-08-30T14:33:31.617Z,43.44
2018-08-30T14:35:08.024Z,43.64
2018-08-30T14:36:43.461Z,43.17
2018-08-30T14:38:19.126Z,43.22
2018-08-30T14:39:56.732Z,43.68
2018-08-30T14:41:32.514Z,44.16
2018-08-30T14:43:08.246Z,44.10
2018-08-30T14:44:44.668Z,43.84
2018-08-30T14:46:20.135Z,44.49
2018-08-30T14:47:56.349Z,44.46
2018-08-30T14:49:32.408Z,44.45
2018-08-30T14:51:08.637Z,44.95
2018-08-30T14:52:44.143Z,45.12
2018-08-30T14:54:20.882Z,44.72
2018-08-30T14:55:56.713Z,44.31
2018-08-30T14:57:39.158Z,44.58
2018-08-30T14:59:14.719Z,44.91
2018-08-30T15:00:51.514Z,44.35
2018-08-30T15:02:26.907Z,44.38
2018-08-30T15:04:02.410Z,45.16
2018-08-30T15:05:38.050Z,45.02
2018-08-30T15:07:13.354Z,44.74
2018-08-30T15:08:48.825Z,44.55
2018-08-30T15:10:25.056Z,44.55
2018-08-30T15:12:01.199Z,44.13
2018-08-30T15:13:36.733Z,44.22
2018-08-30T15:15:12.273Z,44.65
2018-08-30T15:16:47.725Z,44.70
2018-08-30T15:18:23.424Z,44.82
2018-08-30T15:20:01.318Z,44.54
2018-08-30T15:21:36.691Z,44.65
2018-08-30T15:23:13.313Z,44.68
2018-08-30T15:24:48.493Z,45.23
2018-08-30T15:26:23.944Z,45.87
2018-08-30T15:28:00.207Z,45.43
2018-08-30T15:29:35.888Z,45.68
2018-08-30T15:31:11.707Z,45.55
2018-08-30T15:32:47.715Z,45.07
2018-08-30T15:34:23.841Z,45.69
2018-08-30T15:35:59.345Z,46.66
2018-08-30T15:37:34.938Z,45.99
2018-08-30T15:39:11.218Z,45.89
2018-08-30T15:40:46.679Z,45.82
2018-08-30T15:42:22.159Z,45.73
2018-08-30T15:43:57.538Z,45.91
2018-08-30T15:45:33.022Z,45.97
2018-08-30T15:47:08.489Z,45.95
2018-08-30T15:48:46.066Z,46.83
2018-08-30T15:50:21.547Z,46.98
2018-08-30T15:51:57.010Z,46.60
2018-08-30T15:53:32.473Z,45.92
2018-08-30T15:55:10.894Z,45.48
2018-08-30T15:56:47.729Z,45.66
2018-08-30T15:58:23.587Z,45.37
2018-08-30T15:59:59.087Z,45.65
2018-08-30T16:01:34.566Z,44.75
2018-08-30T16:03:10.100Z,44.94
2018-08-30T16:04:45.804Z,45.40
2018-08-30T16:06:21.298Z,46.15
2018-08-30T16:07:56.748Z,45.57
2018-08-30T16:09:32.720Z,45.52
2018-08-30T16:11:08.253Z,45.25
2018-08-30T16:12:44.934Z,45.34
2018-08-30T16:14:20.482Z,44.78
2018-08-30T16:15:56.048Z,44.87
2018-08-30T16:17:31.520Z,45.40
2018-08-30T16:19:06.992Z,45.72
2018-08-30T16:20:42.511Z,45.88
2018-08-30T16:22:18.612Z,45.25
2018-08-30T16:23:54.011Z,45.19
2018-08-30T16:25:29.516Z,46.39
2018-08-30T16:27:06.134Z,45.97
2018-08-30T16:28:44.143Z,46.06
2018-08-30T16:30:19.694Z,45.86
2018-08-30T16:31:55.397Z,45.79
2018-08-30T16:33:31.458Z,45.62
2018-08-30T16:35:08.151Z,46.26
2018-08-30T16:36:43.695Z,47.10
2018-08-30T16:38:20.049Z,48.02
2018-08-30T16:39:55.557Z,47.88
2018-08-30T16:41:30.980Z,48.08
2018-08-30T16:43:07.861Z,47.35
2018-08-30T16:44:43.310Z,47.40
2018-08-30T16:46:18.804Z,47.79
2018-08-30T16:47:54.536Z,47.75
2018-08-30T16:49:30.009Z,47.56
2018-08-30T16:51:05.466Z,47.80
2018-08-30T16:52:41.871Z,47.68
2018-08-30T16:54:18.656Z,48.20
2018-08-30T16:55:54.910Z,47.79
2018-08-30T16:57:31.755Z,48.57
2018-08-30T16:59:07.308Z,48.65
2018-08-30T17:00:45.477Z,48.53
2018-08-30T17:02:20.954Z,48.79
2018-08-30T17:03:56.394Z,47.75
2018-08-30T17:05:32.743Z,47.98
2018-08-30T17:07:12.783Z,48.08
2018-08-30T17:08:49.152Z,48.54
2018-08-30T17:10:24.525Z,50.12
2018-08-30T17:12:01.202Z,51.67
2018-08-30T17:13:38.100Z,53.01
2018-08-30T17:15:13.954Z,52.13
2018-08-30T17:16:49.438Z,51.55
2018-08-30T17:18:25.886Z,53.06
2018-08-30T17:20:01.355Z,53.25
2018-08-30T17:21:36.860Z,52.20
2018-08-30T17:23:27.184Z,51.13
2018-08-30T17:25:02.600Z,53.05
2018-08-30T17:26:38.179Z,54.07
2018-08-30T17:28:13.871Z,55.28
2018-08-30T17:29:50.125Z,55.58
2018-08-30T17:31:26.271Z,55.55
2018-08-30T17:33:01.862Z,55.57
2018-08-30T17:34:38.731Z,55.18
2018-08-30T17:36:14.394Z,55.65
2018-08-30T17:37:50.021Z,56.14
2018-08-30T17:39:25.442Z,57.46
2018-08-30T17:41:00.953Z,58.21
2018-08-30T17:42:36.458Z,57.74
2018-08-30T17:44:11.910Z,57.83
2018-08-30T17:45:48.311Z,58.34
2018-08-30T17:47:23.767Z,58.75
2018-08-30T17:48:59.222Z,59.09
2018-08-30T17:50:35.274Z,59.55
2018-08-30T17:52:13.655Z,60.27
2018-08-30T17:53:50.963Z,60.82
2018-08-30T17:55:27.536Z,60.62
2018-08-30T17:57:03.022Z,60.43
2018-08-30T17:58:38.458Z,60.17
2018-08-30T18:00:14.430Z,60.79
2018-08-30T18:01:50.819Z,61.33
2018-08-30T18:03:26.219Z,61.27
2018-08-30T18:05:01.791Z,60.65
2018-08-30T18:06:38.030Z,60.96
2018-08-30T18:08:13.488Z,61.74
2018-08-30T18:09:48.888Z,62.54
2018-08-30T18:11:24.408Z,61.67
2018-08-30T18:12:59.866Z,61.80
2018-08-30T18:14:35.307Z,61.83
2018-08-30T18:16:12.032Z,61.81
2018-08-30T18:17:47.494Z,63.18
2018-08-30T18:19:23.305Z,63.24
2018-08-30T18:20:58.747Z,63.49
2018-08-30T18:22:34.804Z,63.11
2018-08-30T18:24:10.265Z,62.96
2018-08-30T18:25:46.516Z,63.25
2018-08-30T18:27:21.997Z,63.40
2018-08-30T18:28:57.644Z,63.76
2018-08-30T18:30:33.212Z,64.24
2018-08-30T18:32:08.714Z,63.57
2018-08-30T18:33:44.177Z,63.78
2018-08-30T18:35:19.610Z,63.45
2018-08-30T18:36:55.092Z,63.57
2018-08-30T18:38:30.601Z,63.28
2018-08-30T18:40:08.011Z,63.00
2018-08-30T18:41:43.468Z,62.91
2018-08-30T18:43:19.221Z,62.13
2018-08-30T18:44:54.688Z,61.50
2018-08-30T18:46:30.116Z,60.88
2018-08-30T18:48:05.587Z,60.68
2018-08-30T18:49:41.602Z,62.42
2018-08-30T18:51:17.259Z,62.97
2018-08-30T18:52:52.742Z,62.36
2018-08-30T18:54:28.302Z,61.16
2018-08-30T18:56:03.958Z,61.12
2018-08-30T18:57:39.347Z,60.73
2018-08-30T18:59:15.357Z,61.26
2018-08-30T19:00:52.160Z,61.76
2018-08-30T19:02:29.314Z,60.29
2018-08-30T19:04:04.777Z,59.41
2018-08-30T19:05:40.417Z,59.32
2018-08-30T19:07:15.843Z,60.45
2018-08-30T19:08:51.816Z,62.43
2018-08-30T19:10:28.276Z,64.23
2018-08-30T19:12:03.761Z,63.29
2018-08-30T19:13:39.438Z,64.81
2018-08-30T19:15:21.223Z,64.54
2018-08-30T19:17:04.173Z,64.88
2018-08-30T19:19:14.641Z,66.46
2018-08-30T19:20:50.084Z,66.24
2018-08-30T19:22:25.540Z,65.50
2018-08-30T19:24:00.950Z,65.88
2018-08-30T19:25:36.452Z,65.73
2018-08-30T19:27:11.925Z,65.90
2018-08-30T19:28:47.406Z,66.81
2018-08-30T19:30:28.580Z,68.22
2018-08-30T19:32:04.176Z,68.90
2018-08-30T19:33:39.667Z,68.81
2018-08-30T19:35:20.424Z,66.12
2018-08-30T19:36:55.883Z,67.15
2018-08-30T19:38:31.339Z,65.63
2018-08-30T19:40:10.303Z,64.96
2018-08-30T19:41:45.809Z,65.01
2018-08-30T19:43:21.256Z,66.72
2018-08-30T19:44:56.737Z,65.40
2018-08-30T19:46:32.221Z,66.04
2018-08-30T19:48:07.712Z,66.92
2018-08-30T19:49:46.199Z,66.87
2018-08-30T19:51:21.647Z,64.45
2018-08-30T19:52:57.139Z,64.98
2018-08-30T19:54:32.966Z,66.11
2018-08-30T19:56:09.684Z,66.65
2018-08-30T19:57:45.179Z,66.23
2018-08-30T19:59:20.642Z,66.75
2018-08-30T20:00:56.095Z,67.15
2018-08-30T20:02:32.106Z,67.32
2018-08-30T20:04:07.786Z,67.95
2018-08-30T20:05:44.637Z,68.02
2018-08-30T20:07:20.846Z,68.24
2018-08-30T20:08:56.296Z,67.73
2018-08-30T20:10:31.848Z,68.23
2018-08-30T20:12:07.284Z,68.33
2018-08-30T20:13:43.548Z,68.91
2018-08-30T20:15:19.595Z,69.51
2018-08-30T20:16:57.056Z,69.83
2018-08-30T20:18:32.508Z,70.04
2018-08-30T20:20:09.238Z,69.77
2018-08-30T20:21:44.636Z,68.97
2018-08-30T20:23:21.225Z,68.56
2018-08-30T20:24:56.858Z,68.28
2018-08-30T20:26:32.335Z,68.68
2018-08-30T20:28:08.070Z,69.16
2018-08-30T20:29:43.803Z,69.35
2018-08-30T20:31:19.322Z,70.25
2018-08-30T20:32:54.752Z,70.42
2018-08-30T20:34:30.220Z,70.74
2018-08-30T20:36:05.757Z,71.27
2018-08-30T20:37:41.241Z,71.22
2018-08-30T20:39:16.797Z,71.79
2018-08-30T20:40:52.367Z,71.62